sensor_id;sensor_type;location;lat;lon;timestamp;P1;durP1;ratioP1;P2;durP2;ratioP2
66272;SDS011;58450;52.150;4.466;2023-03-14T00:01:08;13.02;;;2.50;;
66272;SDS011;58450;52.150;4.466;2023-03-14T00:03:37;12.07;;;2.25;;
66272;SDS011;58450;52.150;4.466;2023-03-14T00:06:06;13.43;;;2.08;;
66272;SDS011;58450;52.150;4.466;2023-03-14T00:08:35;9.43;;;1.80;;
66272;SDS011;58450;52.150;4.466;2023-03-14T00:11:04;14.85;;;2.40;;
66272;SDS011;58450;52.150;4.466;2023-03-14T00:13:35;10.23;;;2.05;;
66272;SDS011;58450;52.150;4.466;2023-03-14T00:16:03;12.30;;;2.35;;
66272;SDS011;58450;52.150;4.466;2023-03-14T00:18:34;12.18;;;2.55;;
66272;SDS011;58450;52.150;4.466;2023-03-14T00:21:02;14.90;;;2.72;;
66272;SDS011;58450;52.150;4.466;2023-03-14T00:23:32;14.40;;;2.70;;
66272;SDS011;58450;52.150;4.466;2023-03-14T00:26:03;12.52;;;2.95;;
66272;SDS011;58450;52.150;4.466;2023-03-14T00:28:35;11.75;;;2.80;;
66272;SDS011;58450;52.150;4.466;2023-03-14T00:31:03;14.10;;;2.53;;
66272;SDS011;58450;52.150;4.466;2023-03-14T00:33:32;12.48;;;2.30;;
66272;SDS011;58450;52.150;4.466;2023-03-14T00:36:00;15.27;;;2.92;;
66272;SDS011;58450;52.150;4.466;2023-03-14T00:38:31;15.75;;;2.95;;
66272;SDS011;58450;52.150;4.466;2023-03-14T00:41:02;11.85;;;2.40;;
66272;SDS011;58450;52.150;4.466;2023-03-14T00:43:31;14.98;;;2.85;;
66272;SDS011;58450;52.150;4.466;2023-03-14T00:46:00;14.60;;;3.20;;
66272;SDS011;58450;52.150;4.466;2023-03-14T00:48:28;19.75;;;3.42;;
66272;SDS011;58450;52.150;4.466;2023-03-14T00:50:56;19.63;;;3.08;;
66272;SDS011;58450;52.150;4.466;2023-03-14T00:53:24;22.50;;;4.18;;
66272;SDS011;58450;52.150;4.466;2023-03-14T00:55:51;21.70;;;3.35;;
66272;SDS011;58450;52.150;4.466;2023-03-14T00:58:19;19.85;;;3.28;;
66272;SDS011;58450;52.150;4.466;2023-03-14T01:00:47;21.92;;;3.85;;
66272;SDS011;58450;52.150;4.466;2023-03-14T01:03:16;24.83;;;3.78;;
66272;SDS011;58450;52.150;4.466;2023-03-14T01:05:43;22.50;;;3.53;;
66272;SDS011;58450;52.150;4.466;2023-03-14T01:08:11;18.33;;;3.70;;
66272;SDS011;58450;52.150;4.466;2023-03-14T01:10:39;22.88;;;4.03;;
66272;SDS011;58450;52.150;4.466;2023-03-14T01:13:07;22.02;;;4.03;;
66272;SDS011;58450;52.150;4.466;2023-03-14T01:15:36;15.38;;;2.60;;
66272;SDS011;58450;52.150;4.466;2023-03-14T01:18:04;18.60;;;3.15;;
66272;SDS011;58450;52.150;4.466;2023-03-14T01:20:33;21.13;;;3.92;;
66272;SDS011;58450;52.150;4.466;2023-03-14T01:23:03;16.90;;;2.90;;
66272;SDS011;58450;52.150;4.466;2023-03-14T01:25:31;21.98;;;3.67;;
66272;SDS011;58450;52.150;4.466;2023-03-14T01:27:58;20.73;;;3.58;;
66272;SDS011;58450;52.150;4.466;2023-03-14T01:30:26;20.45;;;3.25;;
66272;SDS011;58450;52.150;4.466;2023-03-14T01:32:54;22.75;;;2.90;;
66272;SDS011;58450;52.150;4.466;2023-03-14T01:35:21;20.08;;;3.15;;
66272;SDS011;58450;52.150;4.466;2023-03-14T01:37:50;16.98;;;3.15;;
66272;SDS011;58450;52.150;4.466;2023-03-14T01:40:18;14.80;;;2.63;;
66272;SDS011;58450;52.150;4.466;2023-03-14T01:42:46;17.48;;;3.38;;
66272;SDS011;58450;52.150;4.466;2023-03-14T01:48:42;18.92;;;2.97;;
66272;SDS011;58450;52.150;4.466;2023-03-14T01:53:49;15.73;;;2.80;;
66272;SDS011;58450;52.150;4.466;2023-03-14T01:56:21;19.10;;;3.38;;
66272;SDS011;58450;52.150;4.466;2023-03-14T01:58:50;15.45;;;2.63;;
66272;SDS011;58450;52.150;4.466;2023-03-14T02:01:20;17.20;;;3.00;;
66272;SDS011;58450;52.150;4.466;2023-03-14T02:03:52;18.73;;;3.35;;
66272;SDS011;58450;52.150;4.466;2023-03-14T02:06:25;16.05;;;2.75;;
66272;SDS011;58450;52.150;4.466;2023-03-14T02:09:01;16.92;;;2.85;;
66272;SDS011;58450;52.150;4.466;2023-03-14T02:11:30;16.98;;;3.28;;
66272;SDS011;58450;52.150;4.466;2023-03-14T02:13:59;18.75;;;2.67;;
66272;SDS011;58450;52.150;4.466;2023-03-14T02:16:28;13.70;;;2.60;;
66272;SDS011;58450;52.150;4.466;2023-03-14T02:18:57;14.48;;;2.40;;
66272;SDS011;58450;52.150;4.466;2023-03-14T02:21:29;18.42;;;3.00;;
66272;SDS011;58450;52.150;4.466;2023-03-14T02:24:16;15.35;;;2.60;;
66272;SDS011;58450;52.150;4.466;2023-03-14T02:29:47;16.48;;;2.75;;
66272;SDS011;58450;52.150;4.466;2023-03-14T02:32:21;14.80;;;2.53;;
66272;SDS011;58450;52.150;4.466;2023-03-14T02:34:52;12.75;;;2.55;;
66272;SDS011;58450;52.150;4.466;2023-03-14T02:37:26;12.80;;;2.33;;
66272;SDS011;58450;52.150;4.466;2023-03-14T02:40:02;12.68;;;2.72;;
66272;SDS011;58450;52.150;4.466;2023-03-14T02:42:34;10.98;;;2.30;;
66272;SDS011;58450;52.150;4.466;2023-03-14T02:48:05;17.45;;;3.03;;
66272;SDS011;58450;52.150;4.466;2023-03-14T02:50:40;15.77;;;3.25;;
66272;SDS011;58450;52.150;4.466;2023-03-14T02:53:12;14.43;;;2.88;;
66272;SDS011;58450;52.150;4.466;2023-03-14T02:55:44;10.50;;;2.28;;
66272;SDS011;58450;52.150;4.466;2023-03-14T02:58:15;14.30;;;3.08;;
66272;SDS011;58450;52.150;4.466;2023-03-14T03:00:43;13.68;;;2.67;;
66272;SDS011;58450;52.150;4.466;2023-03-14T03:03:11;9.05;;;2.42;;
66272;SDS011;58450;52.150;4.466;2023-03-14T03:05:40;13.30;;;2.40;;
66272;SDS011;58450;52.150;4.466;2023-03-14T03:08:09;13.13;;;2.92;;
66272;SDS011;58450;52.150;4.466;2023-03-14T03:10:37;15.52;;;2.70;;
66272;SDS011;58450;52.150;4.466;2023-03-14T03:13:05;9.55;;;2.72;;
66272;SDS011;58450;52.150;4.466;2023-03-14T03:15:34;13.95;;;2.85;;
66272;SDS011;58450;52.150;4.466;2023-03-14T03:18:01;10.95;;;2.75;;
66272;SDS011;58450;52.150;4.466;2023-03-14T03:20:29;12.98;;;2.90;;
66272;SDS011;58450;52.150;4.466;2023-03-14T03:22:58;12.25;;;2.88;;
66272;SDS011;58450;52.150;4.466;2023-03-14T03:25:26;12.00;;;2.80;;
66272;SDS011;58450;52.150;4.466;2023-03-14T03:27:54;14.00;;;2.58;;
66272;SDS011;58450;52.150;4.466;2023-03-14T03:30:21;11.07;;;2.63;;
66272;SDS011;58450;52.150;4.466;2023-03-14T03:32:50;9.25;;;2.67;;
66272;SDS011;58450;52.150;4.466;2023-03-14T03:35:18;14.82;;;2.67;;
66272;SDS011;58450;52.150;4.466;2023-03-14T03:37:45;11.50;;;2.72;;
66272;SDS011;58450;52.150;4.466;2023-03-14T03:40:13;10.38;;;3.00;;
66272;SDS011;58450;52.150;4.466;2023-03-14T03:42:40;13.52;;;3.35;;
66272;SDS011;58450;52.150;4.466;2023-03-14T03:45:08;13.75;;;3.45;;
66272;SDS011;58450;52.150;4.466;2023-03-14T03:47:36;19.17;;;3.70;;
66272;SDS011;58450;52.150;4.466;2023-03-14T03:50:06;15.43;;;3.60;;
66272;SDS011;58450;52.150;4.466;2023-03-14T03:52:34;13.40;;;3.40;;
66272;SDS011;58450;52.150;4.466;2023-03-14T03:55:02;11.55;;;3.90;;
66272;SDS011;58450;52.150;4.466;2023-03-14T03:57:30;17.80;;;3.83;;
66272;SDS011;58450;52.150;4.466;2023-03-14T03:59:57;15.10;;;4.10;;
66272;SDS011;58450;52.150;4.466;2023-03-14T04:02:25;14.60;;;4.32;;
66272;SDS011;58450;52.150;4.466;2023-03-14T04:04:53;12.30;;;3.72;;
66272;SDS011;58450;52.150;4.466;2023-03-14T04:07:22;15.98;;;4.00;;
66272;SDS011;58450;52.150;4.466;2023-03-14T04:09:49;13.90;;;4.30;;
66272;SDS011;58450;52.150;4.466;2023-03-14T04:12:17;14.77;;;4.32;;
66272;SDS011;58450;52.150;4.466;2023-03-14T04:14:45;12.35;;;4.00;;
66272;SDS011;58450;52.150;4.466;2023-03-14T04:17:12;14.25;;;4.15;;
66272;SDS011;58450;52.150;4.466;2023-03-14T04:19:40;11.88;;;4.10;;
66272;SDS011;58450;52.150;4.466;2023-03-14T04:22:07;14.35;;;4.07;;
66272;SDS011;58450;52.150;4.466;2023-03-14T04:24:37;15.32;;;3.50;;
66272;SDS011;58450;52.150;4.466;2023-03-14T04:27:04;12.90;;;3.40;;
66272;SDS011;58450;52.150;4.466;2023-03-14T04:29:32;13.55;;;3.28;;
66272;SDS011;58450;52.150;4.466;2023-03-14T04:31:59;13.80;;;3.38;;
66272;SDS011;58450;52.150;4.466;2023-03-14T04:34:27;10.77;;;3.20;;
66272;SDS011;58450;52.150;4.466;2023-03-14T04:36:54;13.13;;;3.47;;
66272;SDS011;58450;52.150;4.466;2023-03-14T04:39:22;12.85;;;3.38;;
66272;SDS011;58450;52.150;4.466;2023-03-14T04:41:50;14.57;;;3.80;;
66272;SDS011;58450;52.150;4.466;2023-03-14T04:44:18;13.50;;;3.72;;
66272;SDS011;58450;52.150;4.466;2023-03-14T04:46:46;12.93;;;4.18;;
66272;SDS011;58450;52.150;4.466;2023-03-14T04:49:14;12.00;;;3.63;;
66272;SDS011;58450;52.150;4.466;2023-03-14T04:51:41;13.63;;;3.45;;
66272;SDS011;58450;52.150;4.466;2023-03-14T04:54:09;14.18;;;3.78;;
66272;SDS011;58450;52.150;4.466;2023-03-14T04:56:36;12.18;;;3.60;;
66272;SDS011;58450;52.150;4.466;2023-03-14T04:59:05;11.02;;;3.30;;
66272;SDS011;58450;52.150;4.466;2023-03-14T05:01:34;14.07;;;3.65;;
66272;SDS011;58450;52.150;4.466;2023-03-14T05:04:01;10.82;;;3.53;;
66272;SDS011;58450;52.150;4.466;2023-03-14T05:06:29;10.50;;;3.28;;
66272;SDS011;58450;52.150;4.466;2023-03-14T05:08:56;9.30;;;3.53;;
66272;SDS011;58450;52.150;4.466;2023-03-14T05:11:24;10.00;;;3.70;;
66272;SDS011;58450;52.150;4.466;2023-03-14T05:13:51;11.10;;;3.80;;
66272;SDS011;58450;52.150;4.466;2023-03-14T05:16:20;8.52;;;3.58;;
66272;SDS011;58450;52.150;4.466;2023-03-14T05:18:48;7.38;;;3.25;;
66272;SDS011;58450;52.150;4.466;2023-03-14T05:21:15;13.13;;;3.92;;
66272;SDS011;58450;52.150;4.466;2023-03-14T05:23:43;16.50;;;2.90;;
66272;SDS011;58450;52.150;4.466;2023-03-14T05:26:10;17.58;;;2.78;;
66272;SDS011;58450;52.150;4.466;2023-03-14T05:28:38;12.70;;;2.60;;
66272;SDS011;58450;52.150;4.466;2023-03-14T05:31:06;15.18;;;1.88;;
66272;SDS011;58450;52.150;4.466;2023-03-14T05:33:35;16.45;;;2.63;;
66272;SDS011;58450;52.150;4.466;2023-03-14T05:36:03;12.90;;;1.80;;
66272;SDS011;58450;52.150;4.466;2023-03-14T05:38:32;15.10;;;2.30;;
66272;SDS011;58450;52.150;4.466;2023-03-14T05:40:59;15.70;;;1.80;;
66272;SDS011;58450;52.150;4.466;2023-03-14T05:43:27;14.95;;;1.73;;
66272;SDS011;58450;52.150;4.466;2023-03-14T05:45:54;12.90;;;1.95;;
66272;SDS011;58450;52.150;4.466;2023-03-14T05:48:22;14.07;;;2.40;;
66272;SDS011;58450;52.150;4.466;2023-03-14T05:50:55;9.98;;;1.75;;
66272;SDS011;58450;52.150;4.466;2023-03-14T05:53:25;10.43;;;2.00;;
66272;SDS011;58450;52.150;4.466;2023-03-14T05:55:52;11.73;;;2.10;;
66272;SDS011;58450;52.150;4.466;2023-03-14T05:58:21;10.57;;;1.73;;
66272;SDS011;58450;52.150;4.466;2023-03-14T06:00:50;9.43;;;1.92;;
66272;SDS011;58450;52.150;4.466;2023-03-14T06:03:18;11.90;;;2.03;;
66272;SDS011;58450;52.150;4.466;2023-03-14T06:05:45;13.55;;;2.05;;
66272;SDS011;58450;52.150;4.466;2023-03-14T06:08:14;10.48;;;1.70;;
66272;SDS011;58450;52.150;4.466;2023-03-14T06:10:42;8.65;;;1.55;;
66272;SDS011;58450;52.150;4.466;2023-03-14T06:13:09;8.13;;;1.33;;
66272;SDS011;58450;52.150;4.466;2023-03-14T06:15:37;9.15;;;1.45;;
66272;SDS011;58450;52.150;4.466;2023-03-14T06:18:04;5.95;;;1.10;;
66272;SDS011;58450;52.150;4.466;2023-03-14T06:20:32;5.35;;;1.08;;
66272;SDS011;58450;52.150;4.466;2023-03-14T06:23:01;7.72;;;1.10;;
66272;SDS011;58450;52.150;4.466;2023-03-14T06:25:29;7.65;;;1.17;;
66272;SDS011;58450;52.150;4.466;2023-03-14T06:27:57;7.35;;;1.55;;
66272;SDS011;58450;52.150;4.466;2023-03-14T06:30:24;6.05;;;1.10;;
66272;SDS011;58450;52.150;4.466;2023-03-14T06:32:52;9.52;;;1.77;;
66272;SDS011;58450;52.150;4.466;2023-03-14T06:35:21;9.77;;;1.50;;
66272;SDS011;58450;52.150;4.466;2023-03-14T06:37:49;7.50;;;1.70;;
66272;SDS011;58450;52.150;4.466;2023-03-14T06:40:17;9.60;;;1.63;;
66272;SDS011;58450;52.150;4.466;2023-03-14T06:42:46;12.68;;;1.92;;
66272;SDS011;58450;52.150;4.466;2023-03-14T06:45:14;13.02;;;1.83;;
66272;SDS011;58450;52.150;4.466;2023-03-14T06:47:42;12.70;;;2.03;;
66272;SDS011;58450;52.150;4.466;2023-03-14T06:50:10;14.00;;;1.92;;
66272;SDS011;58450;52.150;4.466;2023-03-14T06:52:38;9.52;;;1.77;;
66272;SDS011;58450;52.150;4.466;2023-03-14T06:55:07;17.00;;;2.00;;
66272;SDS011;58450;52.150;4.466;2023-03-14T06:57:35;13.02;;;2.10;;
66272;SDS011;58450;52.150;4.466;2023-03-14T07:00:04;17.17;;;2.10;;
66272;SDS011;58450;52.150;4.466;2023-03-14T07:02:33;9.57;;;1.42;;
66272;SDS011;58450;52.150;4.466;2023-03-14T07:05:01;10.30;;;1.95;;
66272;SDS011;58450;52.150;4.466;2023-03-14T07:07:29;6.30;;;1.75;;
66272;SDS011;58450;52.150;4.466;2023-03-14T07:09:56;9.25;;;1.70;;
66272;SDS011;58450;52.150;4.466;2023-03-14T07:12:24;11.77;;;1.95;;
66272;SDS011;58450;52.150;4.466;2023-03-14T07:14:52;11.13;;;1.85;;
66272;SDS011;58450;52.150;4.466;2023-03-14T07:17:20;11.20;;;1.77;;
66272;SDS011;58450;52.150;4.466;2023-03-14T07:19:48;15.48;;;1.88;;
66272;SDS011;58450;52.150;4.466;2023-03-14T07:22:15;12.15;;;1.90;;
66272;SDS011;58450;52.150;4.466;2023-03-14T07:24:43;7.72;;;1.38;;
66272;SDS011;58450;52.150;4.466;2023-03-14T07:27:10;8.55;;;1.65;;
66272;SDS011;58450;52.150;4.466;2023-03-14T07:29:38;4.25;;;1.20;;
66272;SDS011;58450;52.150;4.466;2023-03-14T07:32:05;8.65;;;1.25;;
66272;SDS011;58450;52.150;4.466;2023-03-14T07:34:35;10.60;;;2.00;;
66272;SDS011;58450;52.150;4.466;2023-03-14T07:37:02;11.32;;;1.83;;
66272;SDS011;58450;52.150;4.466;2023-03-14T07:39:30;10.77;;;1.67;;
66272;SDS011;58450;52.150;4.466;2023-03-14T07:41:58;12.45;;;1.98;;
66272;SDS011;58450;52.150;4.466;2023-03-14T07:44:25;10.82;;;1.95;;
66272;SDS011;58450;52.150;4.466;2023-03-14T07:46:53;8.18;;;1.70;;
66272;SDS011;58450;52.150;4.466;2023-03-14T07:49:21;12.43;;;2.00;;
66272;SDS011;58450;52.150;4.466;2023-03-14T07:51:50;7.57;;;1.13;;
66272;SDS011;58450;52.150;4.466;2023-03-14T07:54:17;12.15;;;1.58;;
66272;SDS011;58450;52.150;4.466;2023-03-14T07:56:45;9.65;;;1.70;;
66272;SDS011;58450;52.150;4.466;2023-03-14T07:59:12;13.43;;;1.95;;
66272;SDS011;58450;52.150;4.466;2023-03-14T08:01:40;7.93;;;1.48;;
66272;SDS011;58450;52.150;4.466;2023-03-14T08:04:07;8.75;;;1.40;;
66272;SDS011;58450;52.150;4.466;2023-03-14T08:06:35;8.85;;;1.42;;
66272;SDS011;58450;52.150;4.466;2023-03-14T08:09:04;11.10;;;1.83;;
66272;SDS011;58450;52.150;4.466;2023-03-14T08:11:32;11.38;;;1.55;;
66272;SDS011;58450;52.150;4.466;2023-03-14T08:13:59;8.85;;;1.73;;
66272;SDS011;58450;52.150;4.466;2023-03-14T08:16:27;7.47;;;1.30;;
66272;SDS011;58450;52.150;4.466;2023-03-14T08:18:54;8.85;;;1.50;;
66272;SDS011;58450;52.150;4.466;2023-03-14T08:21:23;5.88;;;1.27;;
66272;SDS011;58450;52.150;4.466;2023-03-14T08:23:50;7.65;;;1.27;;
66272;SDS011;58450;52.150;4.466;2023-03-14T08:26:19;5.22;;;0.90;;
66272;SDS011;58450;52.150;4.466;2023-03-14T08:28:47;3.42;;;0.80;;
66272;SDS011;58450;52.150;4.466;2023-03-14T08:31:15;4.43;;;1.17;;
66272;SDS011;58450;52.150;4.466;2023-03-14T08:33:42;7.75;;;1.50;;
66272;SDS011;58450;52.150;4.466;2023-03-14T08:36:10;6.80;;;1.20;;
66272;SDS011;58450;52.150;4.466;2023-03-14T08:38:37;10.07;;;1.55;;
66272;SDS011;58450;52.150;4.466;2023-03-14T08:41:08;7.13;;;1.20;;
66272;SDS011;58450;52.150;4.466;2023-03-14T08:43:37;5.82;;;1.30;;
66272;SDS011;58450;52.150;4.466;2023-03-14T08:46:05;9.48;;;1.70;;
66272;SDS011;58450;52.150;4.466;2023-03-14T08:48:33;10.43;;;1.70;;
66272;SDS011;58450;52.150;4.466;2023-03-14T08:51:04;8.98;;;1.30;;
66272;SDS011;58450;52.150;4.466;2023-03-14T08:53:32;9.73;;;1.92;;
66272;SDS011;58450;52.150;4.466;2023-03-14T08:56:00;12.90;;;2.33;;
66272;SDS011;58450;52.150;4.466;2023-03-14T08:58:28;10.00;;;2.20;;
66272;SDS011;58450;52.150;4.466;2023-03-14T09:00:56;16.38;;;2.70;;
66272;SDS011;58450;52.150;4.466;2023-03-14T09:03:24;17.95;;;2.50;;
66272;SDS011;58450;52.150;4.466;2023-03-14T09:05:54;11.65;;;2.40;;
66272;SDS011;58450;52.150;4.466;2023-03-14T09:08:21;13.45;;;2.55;;
66272;SDS011;58450;52.150;4.466;2023-03-14T09:10:49;10.55;;;2.05;;
66272;SDS011;58450;52.150;4.466;2023-03-14T09:13:16;14.20;;;2.58;;
66272;SDS011;58450;52.150;4.466;2023-03-14T09:15:44;17.00;;;2.88;;
66272;SDS011;58450;52.150;4.466;2023-03-14T09:18:12;17.58;;;2.58;;
66272;SDS011;58450;52.150;4.466;2023-03-14T09:20:40;16.15;;;2.72;;
66272;SDS011;58450;52.150;4.466;2023-03-14T09:23:07;18.13;;;3.25;;
66272;SDS011;58450;52.150;4.466;2023-03-14T09:25:35;14.32;;;2.65;;
66272;SDS011;58450;52.150;4.466;2023-03-14T09:28:03;17.98;;;2.97;;
66272;SDS011;58450;52.150;4.466;2023-03-14T09:30:31;14.82;;;2.70;;
66272;SDS011;58450;52.150;4.466;2023-03-14T09:32:59;19.38;;;2.70;;
66272;SDS011;58450;52.150;4.466;2023-03-14T09:35:28;14.63;;;3.22;;
66272;SDS011;58450;52.150;4.466;2023-03-14T09:37:55;15.85;;;3.42;;
66272;SDS011;58450;52.150;4.466;2023-03-14T09:40:23;12.90;;;2.63;;
66272;SDS011;58450;52.150;4.466;2023-03-14T09:42:51;12.80;;;2.55;;
66272;SDS011;58450;52.150;4.466;2023-03-14T09:45:23;19.98;;;3.22;;
66272;SDS011;58450;52.150;4.466;2023-03-14T09:47:54;14.20;;;3.03;;
66272;SDS011;58450;52.150;4.466;2023-03-14T09:50:24;16.73;;;3.08;;
66272;SDS011;58450;52.150;4.466;2023-03-14T09:52:59;20.85;;;2.90;;
66272;SDS011;58450;52.150;4.466;2023-03-14T09:55:33;19.80;;;2.90;;
66272;SDS011;58450;52.150;4.466;2023-03-14T09:58:02;14.40;;;3.08;;
66272;SDS011;58450;52.150;4.466;2023-03-14T10:00:36;19.17;;;3.03;;
66272;SDS011;58450;52.150;4.466;2023-03-14T10:03:13;19.55;;;3.50;;
66272;SDS011;58450;52.150;4.466;2023-03-14T10:05:52;15.02;;;2.85;;
66272;SDS011;58450;52.150;4.466;2023-03-14T10:08:23;23.88;;;2.97;;
66272;SDS011;58450;52.150;4.466;2023-03-14T10:10:50;15.40;;;2.90;;
66272;SDS011;58450;52.150;4.466;2023-03-14T10:13:20;17.17;;;3.10;;
66272;SDS011;58450;52.150;4.466;2023-03-14T10:15:52;12.05;;;2.30;;
66272;SDS011;58450;52.150;4.466;2023-03-14T10:18:22;14.63;;;2.60;;
66272;SDS011;58450;52.150;4.466;2023-03-14T10:21:02;16.80;;;2.67;;
66272;SDS011;58450;52.150;4.466;2023-03-14T10:23:34;14.98;;;2.78;;
66272;SDS011;58450;52.150;4.466;2023-03-14T10:26:08;13.68;;;2.50;;
66272;SDS011;58450;52.150;4.466;2023-03-14T10:28:43;11.25;;;2.47;;
66272;SDS011;58450;52.150;4.466;2023-03-14T10:31:12;14.27;;;3.15;;
66272;SDS011;58450;52.150;4.466;2023-03-14T10:33:41;11.25;;;2.25;;
66272;SDS011;58450;52.150;4.466;2023-03-14T10:36:17;13.80;;;3.08;;
66272;SDS011;58450;52.150;4.466;2023-03-14T10:38:52;15.40;;;2.90;;
66272;SDS011;58450;52.150;4.466;2023-03-14T10:41:32;13.02;;;2.75;;
66272;SDS011;58450;52.150;4.466;2023-03-14T10:44:00;14.40;;;2.80;;
66272;SDS011;58450;52.150;4.466;2023-03-14T10:46:30;12.25;;;2.45;;
66272;SDS011;58450;52.150;4.466;2023-03-14T10:49:00;8.70;;;2.10;;
66272;SDS011;58450;52.150;4.466;2023-03-14T10:51:32;13.70;;;2.27;;
66272;SDS011;58450;52.150;4.466;2023-03-14T10:54:03;10.73;;;2.30;;
66272;SDS011;58450;52.150;4.466;2023-03-14T10:56:41;11.68;;;2.13;;
66272;SDS011;58450;52.150;4.466;2023-03-14T10:59:11;10.38;;;2.20;;
66272;SDS011;58450;52.150;4.466;2023-03-14T11:01:43;7.60;;;1.92;;
66272;SDS011;58450;52.150;4.466;2023-03-14T11:04:22;13.93;;;2.53;;
66272;SDS011;58450;52.150;4.466;2023-03-14T11:07:14;8.93;;;1.83;;
66272;SDS011;58450;52.150;4.466;2023-03-14T11:09:56;10.00;;;2.28;;
66272;SDS011;58450;52.150;4.466;2023-03-14T11:12:39;7.55;;;2.00;;
66272;SDS011;58450;52.150;4.466;2023-03-14T11:15:20;11.68;;;1.83;;
66272;SDS011;58450;52.150;4.466;2023-03-14T11:18:03;7.07;;;2.00;;
66272;SDS011;58450;52.150;4.466;2023-03-14T11:23:40;11.95;;;2.00;;
66272;SDS011;58450;52.150;4.466;2023-03-14T11:26:24;7.40;;;1.98;;
66272;SDS011;58450;52.150;4.466;2023-03-14T11:29:08;6.85;;;1.48;;
66272;SDS011;58450;52.150;4.466;2023-03-14T11:31:49;8.65;;;2.17;;
66272;SDS011;58450;52.150;4.466;2023-03-14T11:34:22;10.63;;;2.33;;
66272;SDS011;58450;52.150;4.466;2023-03-14T11:37:00;6.55;;;1.70;;
66272;SDS011;58450;52.150;4.466;2023-03-14T11:39:35;8.90;;;1.75;;
66272;SDS011;58450;52.150;4.466;2023-03-14T11:42:10;7.35;;;1.67;;
66272;SDS011;58450;52.150;4.466;2023-03-14T11:44:42;8.43;;;2.10;;
66272;SDS011;58450;52.150;4.466;2023-03-14T11:47:15;9.20;;;1.77;;
66272;SDS011;58450;52.150;4.466;2023-03-14T11:49:50;10.57;;;2.05;;
66272;SDS011;58450;52.150;4.466;2023-03-14T11:52:27;9.75;;;2.10;;
66272;SDS011;58450;52.150;4.466;2023-03-14T11:55:00;10.40;;;1.70;;
66272;SDS011;58450;52.150;4.466;2023-03-14T11:57:39;7.78;;;1.60;;
66272;SDS011;58450;52.150;4.466;2023-03-14T12:00:12;7.47;;;1.80;;
66272;SDS011;58450;52.150;4.466;2023-03-14T12:02:46;9.65;;;1.75;;
66272;SDS011;58450;52.150;4.466;2023-03-14T12:11:10;8.10;;;1.92;;
66272;SDS011;58450;52.150;4.466;2023-03-14T12:13:48;9.13;;;1.80;;
66272;SDS011;58450;52.150;4.466;2023-03-14T12:19:20;10.25;;;1.83;;
66272;SDS011;58450;52.150;4.466;2023-03-14T12:22:08;7.90;;;1.67;;
66272;SDS011;58450;52.150;4.466;2023-03-14T12:24:51;7.13;;;1.52;;
66272;SDS011;58450;52.150;4.466;2023-03-14T12:27:41;7.70;;;1.70;;
66272;SDS011;58450;52.150;4.466;2023-03-14T12:30:32;7.97;;;1.50;;
66272;SDS011;58450;52.150;4.466;2023-03-14T12:33:10;8.25;;;1.50;;
66272;SDS011;58450;52.150;4.466;2023-03-14T12:35:57;7.57;;;1.33;;
66272;SDS011;58450;52.150;4.466;2023-03-14T12:38:49;7.55;;;1.33;;
66272;SDS011;58450;52.150;4.466;2023-03-14T12:41:29;4.90;;;1.10;;
66272;SDS011;58450;52.150;4.466;2023-03-14T12:50:27;5.78;;;1.20;;
66272;SDS011;58450;52.150;4.466;2023-03-14T12:59:50;7.07;;;1.40;;
66272;SDS011;58450;52.150;4.466;2023-03-14T13:02:26;6.60;;;1.55;;
66272;SDS011;58450;52.150;4.466;2023-03-14T13:05:04;5.57;;;1.58;;
66272;SDS011;58450;52.150;4.466;2023-03-14T13:10:39;8.60;;;1.30;;
66272;SDS011;58450;52.150;4.466;2023-03-14T13:13:15;6.22;;;1.73;;
66272;SDS011;58450;52.150;4.466;2023-03-14T13:15:48;6.22;;;1.27;;
66272;SDS011;58450;52.150;4.466;2023-03-14T13:18:26;6.53;;;1.35;;
66272;SDS011;58450;52.150;4.466;2023-03-14T13:21:03;7.68;;;1.38;;
66272;SDS011;58450;52.150;4.466;2023-03-14T13:23:38;5.82;;;1.20;;
66272;SDS011;58450;52.150;4.466;2023-03-14T13:26:09;7.70;;;1.40;;
66272;SDS011;58450;52.150;4.466;2023-03-14T13:28:41;9.32;;;1.80;;
66272;SDS011;58450;52.150;4.466;2023-03-14T13:31:12;7.32;;;1.50;;
66272;SDS011;58450;52.150;4.466;2023-03-14T13:33:56;8.15;;;1.58;;
66272;SDS011;58450;52.150;4.466;2023-03-14T13:36:27;6.32;;;1.30;;
66272;SDS011;58450;52.150;4.466;2023-03-14T13:38:55;8.88;;;1.52;;
66272;SDS011;58450;52.150;4.466;2023-03-14T13:41:24;5.35;;;1.38;;
66272;SDS011;58450;52.150;4.466;2023-03-14T13:43:52;5.40;;;1.52;;
66272;SDS011;58450;52.150;4.466;2023-03-14T13:46:30;8.10;;;1.35;;
66272;SDS011;58450;52.150;4.466;2023-03-14T13:49:02;7.68;;;1.50;;
66272;SDS011;58450;52.150;4.466;2023-03-14T13:51:36;7.13;;;1.38;;
66272;SDS011;58450;52.150;4.466;2023-03-14T13:54:12;7.75;;;1.40;;
66272;SDS011;58450;52.150;4.466;2023-03-14T13:56:42;8.25;;;1.27;;
66272;SDS011;58450;52.150;4.466;2023-03-14T13:59:20;7.32;;;1.40;;
66272;SDS011;58450;52.150;4.466;2023-03-14T14:01:49;6.65;;;1.40;;
66272;SDS011;58450;52.150;4.466;2023-03-14T14:04:19;9.10;;;1.70;;
66272;SDS011;58450;52.150;4.466;2023-03-14T14:06:54;8.68;;;1.80;;
66272;SDS011;58450;52.150;4.466;2023-03-14T14:09:24;10.75;;;1.60;;
66272;SDS011;58450;52.150;4.466;2023-03-14T14:11:55;9.73;;;1.60;;
66272;SDS011;58450;52.150;4.466;2023-03-14T14:14:28;11.93;;;1.85;;
66272;SDS011;58450;52.150;4.466;2023-03-14T14:19:34;7.95;;;1.50;;
66272;SDS011;58450;52.150;4.466;2023-03-14T14:22:07;7.57;;;1.40;;
66272;SDS011;58450;52.150;4.466;2023-03-14T14:24:37;7.70;;;1.50;;
66272;SDS011;58450;52.150;4.466;2023-03-14T14:27:08;8.43;;;1.52;;
66272;SDS011;58450;52.150;4.466;2023-03-14T14:29:42;5.90;;;1.20;;
66272;SDS011;58450;52.150;4.466;2023-03-14T14:32:12;7.45;;;1.30;;
66272;SDS011;58450;52.150;4.466;2023-03-14T14:34:42;9.32;;;1.48;;
66272;SDS011;58450;52.150;4.466;2023-03-14T14:37:22;7.07;;;1.50;;
66272;SDS011;58450;52.150;4.466;2023-03-14T14:39:52;6.15;;;1.70;;
66272;SDS011;58450;52.150;4.466;2023-03-14T14:42:24;5.47;;;1.40;;
66272;SDS011;58450;52.150;4.466;2023-03-14T14:44:55;6.28;;;1.38;;
66272;SDS011;58450;52.150;4.466;2023-03-14T14:47:26;4.72;;;1.25;;
66272;SDS011;58450;52.150;4.466;2023-03-14T14:49:58;11.13;;;1.48;;
66272;SDS011;58450;52.150;4.466;2023-03-14T14:52:33;9.40;;;1.83;;
66272;SDS011;58450;52.150;4.466;2023-03-14T14:55:13;8.20;;;1.60;;
66272;SDS011;58450;52.150;4.466;2023-03-14T14:57:49;8.18;;;1.55;;
66272;SDS011;58450;52.150;4.466;2023-03-14T15:00:19;7.90;;;1.48;;
66272;SDS011;58450;52.150;4.466;2023-03-14T15:02:50;12.20;;;1.63;;
66272;SDS011;58450;52.150;4.466;2023-03-14T15:05:21;8.13;;;1.60;;
66272;SDS011;58450;52.150;4.466;2023-03-14T15:07:52;6.68;;;1.52;;
66272;SDS011;58450;52.150;4.466;2023-03-14T15:10:21;4.53;;;1.15;;
66272;SDS011;58450;52.150;4.466;2023-03-14T15:12:51;7.28;;;1.27;;
66272;SDS011;58450;52.150;4.466;2023-03-14T15:15:19;4.55;;;1.40;;
66272;SDS011;58450;52.150;4.466;2023-03-14T15:17:47;5.30;;;1.42;;
66272;SDS011;58450;52.150;4.466;2023-03-14T15:20:15;5.78;;;1.33;;
66272;SDS011;58450;52.150;4.466;2023-03-14T15:22:45;6.63;;;1.45;;
66272;SDS011;58450;52.150;4.466;2023-03-14T15:25:15;9.40;;;1.23;;
66272;SDS011;58450;52.150;4.466;2023-03-14T15:27:43;8.70;;;1.42;;
66272;SDS011;58450;52.150;4.466;2023-03-14T15:30:11;6.07;;;1.10;;
66272;SDS011;58450;52.150;4.466;2023-03-14T15:32:40;7.38;;;1.48;;
66272;SDS011;58450;52.150;4.466;2023-03-14T15:35:09;6.63;;;1.58;;
66272;SDS011;58450;52.150;4.466;2023-03-14T15:37:36;4.60;;;1.27;;
66272;SDS011;58450;52.150;4.466;2023-03-14T15:40:04;7.65;;;1.70;;
66272;SDS011;58450;52.150;4.466;2023-03-14T15:42:40;9.05;;;1.45;;